createdAt,value
2022-09-06T00:00:51.859Z,14.70
2022-09-06T00:03:40.329Z,14.62
2022-09-06T00:06:18.782Z,14.58
2022-09-06T00:09:06.129Z,14.64
2022-09-06T00:11:37.056Z,14.58
2022-09-06T00:14:10.088Z,14.53
2022-09-06T00:16:43.180Z,14.51
2022-09-06T00:19:22.660Z,14.50
2022-09-06T00:21:49.641Z,14.57
2022-09-06T00:24:25.933Z,14.65
2022-09-06T00:26:58.427Z,14.61
2022-09-06T00:29:30.748Z,14.52
2022-09-06T00:32:11.096Z,14.45
2022-09-06T00:34:38.229Z,14.33
2022-09-06T00:37:23.842Z,14.32
2022-09-06T00:39:56.277Z,14.33
2022-09-06T00:42:23.359Z,14.36
2022-09-06T00:44:56.354Z,14.34
2022-09-06T00:47:29.711Z,14.36
2022-09-06T00:50:03.524Z,14.35
2022-09-06T00:52:32.034Z,14.41
2022-09-06T00:55:07.965Z,14.35
2022-09-06T00:57:35.600Z,14.32
2022-09-06T01:00:09.765Z,14.25
2022-09-06T01:02:44.974Z,14.22
2022-09-06T01:05:17.255Z,14.17
2022-09-06T01:07:54.555Z,14.18
2022-09-06T01:11:24.671Z,14.17
2022-09-06T01:14:09.365Z,14.09
2022-09-06T01:17:08.623Z,14.03
2022-09-06T01:20:06.865Z,14.04
2022-09-06T01:22:52.718Z,14.03
2022-09-06T01:25:31.650Z,14.04
2022-09-06T01:28:19.570Z,14.01
2022-09-06T01:31:00.911Z,14.00
2022-09-06T01:34:05.526Z,13.95
2022-09-06T01:36:49.726Z,13.86
2022-09-06T01:39:31.985Z,13.91
2022-09-06T01:42:08.661Z,13.93
2022-09-06T01:44:43.371Z,13.96
2022-09-06T01:47:30.380Z,13.88
2022-09-06T01:50:12.666Z,13.94
2022-09-06T01:53:01.047Z,13.99
2022-09-06T01:55:45.199Z,13.97
2022-09-06T01:58:56.489Z,13.91
2022-09-06T02:01:39.660Z,13.89
2022-09-06T02:04:15.398Z,13.82
2022-09-06T02:07:02.277Z,13.88
2022-09-06T02:09:41.142Z,13.77
2022-09-06T02:12:16.091Z,13.78
2022-09-06T02:14:52.249Z,13.74
2022-09-06T02:17:29.782Z,13.74
2022-09-06T02:20:08.719Z,13.73
2022-09-06T02:22:47.909Z,13.73
2022-09-06T02:25:47.503Z,13.76
2022-09-06T02:28:25.026Z,13.79
2022-09-06T02:31:04.191Z,13.80
2022-09-06T02:33:41.392Z,13.81
2022-09-06T02:36:19.542Z,13.78
2022-09-06T02:38:57.291Z,13.73
2022-09-06T02:41:27.446Z,13.79
2022-09-06T02:43:55.579Z,13.83
2022-09-06T02:46:33.288Z,13.83
2022-09-06T02:49:07.824Z,13.95
2022-09-06T02:51:41.131Z,13.78
2022-09-06T02:54:12.984Z,13.81
2022-09-06T02:56:50.213Z,13.86
2022-09-06T02:59:32.908Z,13.87
2022-09-06T03:02:05.372Z,13.84
2022-09-06T03:04:34.772Z,13.79
2022-09-06T03:07:18.923Z,13.75
2022-09-06T03:09:57.242Z,13.74
2022-09-06T03:12:34.498Z,13.74
2022-09-06T03:15:01.543Z,13.75
2022-09-06T03:17:31.276Z,13.83
2022-09-06T03:20:07.045Z,13.80
2022-09-06T03:22:45.330Z,13.83
2022-09-06T03:25:17.927Z,13.80
2022-09-06T03:27:48.077Z,13.80
2022-09-06T03:30:15.231Z,13.84
2022-09-06T03:32:50.598Z,13.83
2022-09-06T03:35:34.147Z,14.03
2022-09-06T03:38:04.108Z,14.09
2022-09-06T03:40:32.092Z,14.00
2022-09-06T03:42:59.162Z,13.97
2022-09-06T03:45:28.871Z,14.03
2022-09-06T03:48:09.886Z,14.14
2022-09-06T03:50:49.001Z,14.23
2022-09-06T03:53:26.672Z,14.25
2022-09-06T03:56:08.798Z,14.19
2022-09-06T03:58:42.666Z,14.20
2022-09-06T04:01:20.173Z,14.17
2022-09-06T04:03:50.387Z,14.19
2022-09-06T04:06:28.140Z,14.25
2022-09-06T04:09:03.203Z,14.24
2022-09-06T04:11:33.055Z,14.26
2022-09-06T04:14:18.203Z,14.16
2022-09-06T04:16:45.289Z,14.18
2022-09-06T04:19:16.173Z,14.17
2022-09-06T04:21:56.264Z,14.17
2022-09-06T04:24:26.250Z,14.19
2022-09-06T04:27:02.063Z,14.13
2022-09-06T04:29:34.581Z,14.14
2022-09-06T04:32:06.621Z,14.15
2022-09-06T04:34:34.341Z,14.05
2022-09-06T04:37:07.196Z,14.01
2022-09-06T04:39:34.437Z,13.97
2022-09-06T04:42:07.068Z,13.99
2022-09-06T04:44:49.398Z,13.96
2022-09-06T04:47:34.401Z,14.00
2022-09-06T04:50:10.475Z,14.01
2022-09-06T04:52:40.665Z,13.98
2022-09-06T04:55:08.177Z,13.98
2022-09-06T04:57:42.021Z,14.01
2022-09-06T05:00:12.372Z,14.00
2022-09-06T05:03:00.129Z,13.97
2022-09-06T05:05:40.765Z,13.97
2022-09-06T05:08:21.994Z,13.97
2022-09-06T05:11:02.597Z,13.99
2022-09-06T05:13:40.978Z,14.06
2022-09-06T05:16:09.132Z,14.08
2022-09-06T05:18:43.344Z,14.22
2022-09-06T05:21:16.315Z,14.26
2022-09-06T05:23:49.388Z,14.31
2022-09-06T05:26:19.432Z,14.65
2022-09-06T05:28:55.184Z,14.66
2022-09-06T05:31:33.453Z,14.84
2022-09-06T05:34:06.579Z,14.93
2022-09-06T05:36:42.523Z,15.08
2022-09-06T05:39:12.436Z,15.13
2022-09-06T05:41:48.540Z,15.16
2022-09-06T05:44:15.555Z,15.24
2022-09-06T05:46:51.094Z,15.26
2022-09-06T05:49:30.507Z,15.38
2022-09-06T05:52:11.634Z,15.59
2022-09-06T05:54:50.009Z,16.03
2022-09-06T05:57:30.212Z,16.45
2022-09-06T06:02:50.456Z,17.35
2022-09-06T06:05:21.649Z,17.60
2022-09-06T06:07:48.660Z,17.87
2022-09-06T06:10:21.254Z,18.15
2022-09-06T06:12:54.327Z,18.34
2022-09-06T06:15:21.416Z,18.40
2022-09-06T06:17:56.693Z,18.75
2022-09-06T06:20:24.124Z,18.91
2022-09-06T06:22:59.569Z,18.86
2022-09-06T06:25:32.449Z,18.78
2022-09-06T06:28:01.961Z,19.01
2022-09-06T06:30:40.076Z,19.37
2022-09-06T06:33:15.381Z,19.49
2022-09-06T06:36:05.640Z,19.44
2022-09-06T06:38:43.732Z,19.58
2022-09-06T06:41:16.300Z,19.61
2022-09-06T06:43:43.679Z,19.41
2022-09-06T06:46:16.299Z,19.09
2022-09-06T06:48:50.396Z,19.46
2022-09-06T06:51:23.613Z,19.73
2022-09-06T06:53:54.433Z,19.70
2022-09-06T06:56:35.645Z,19.71
2022-09-06T06:59:08.374Z,20.21
2022-09-06T07:01:36.744Z,20.23
2022-09-06T07:04:12.426Z,20.59
2022-09-06T07:12:38.375Z,21.03
2022-09-06T07:15:06.974Z,21.07
2022-09-06T07:17:38.104Z,20.86
2022-09-06T07:22:45.955Z,21.11
2022-09-06T07:25:23.190Z,21.45
2022-09-06T07:27:58.462Z,21.39
2022-09-06T07:30:27.165Z,21.71
2022-09-06T07:33:00.907Z,21.54
2022-09-06T07:35:34.014Z,21.83
2022-09-06T07:38:04.996Z,21.84
2022-09-06T07:40:32.044Z,21.77
2022-09-06T07:43:07.085Z,21.93
2022-09-06T07:45:38.115Z,22.01
2022-09-06T07:48:25.322Z,22.15
2022-09-06T07:50:53.670Z,22.37
2022-09-06T07:53:30.812Z,22.36
2022-09-06T07:56:09.309Z,22.41
2022-09-06T07:58:47.320Z,22.92
2022-09-06T08:01:39.768Z,22.66
2022-09-06T08:04:15.864Z,22.38
2022-09-06T08:09:46.323Z,22.37
2022-09-06T08:12:17.487Z,22.49
2022-09-06T08:14:44.684Z,22.51
2022-09-06T08:17:13.564Z,22.60
2022-09-06T08:19:46.961Z,22.63
2022-09-06T08:22:15.127Z,22.73
2022-09-06T08:24:42.460Z,22.80
2022-09-06T08:27:09.551Z,23.21
2022-09-06T08:29:45.491Z,23.26
2022-09-06T08:32:22.511Z,23.16
2022-09-06T08:34:55.510Z,23.09
2022-09-06T08:37:38.807Z,23.18
2022-09-06T08:40:12.781Z,23.32
2022-09-06T08:42:43.320Z,23.53
2022-09-06T08:45:28.272Z,23.48
2022-09-06T08:48:10.394Z,23.36
2022-09-06T08:50:50.634Z,23.14
2022-09-06T08:53:22.145Z,22.93
2022-09-06T08:55:59.708Z,23.07
2022-09-06T08:58:45.833Z,22.96
2022-09-06T09:01:24.767Z,22.99
2022-09-06T09:03:57.439Z,22.61
2022-09-06T09:06:38.197Z,22.90
2022-09-06T09:09:12.948Z,23.22
2022-09-06T09:11:43.842Z,23.58
2022-09-06T09:14:17.326Z,23.60
2022-09-06T09:16:57.123Z,24.21
2022-09-06T09:19:30.406Z,24.59
2022-09-06T09:22:00.490Z,24.43
2022-09-06T09:24:36.706Z,24.15
2022-09-06T09:27:16.179Z,24.09
2022-09-06T09:32:59.663Z,23.37
2022-09-06T09:35:36.966Z,23.15
2022-09-06T09:38:11.824Z,23.44
2022-09-06T09:40:41.850Z,23.58
2022-09-06T09:43:23.358Z,23.69
2022-09-06T09:46:12.274Z,24.15
2022-09-06T09:48:40.966Z,24.35
2022-09-06T09:51:26.589Z,24.20
2022-09-06T09:53:59.463Z,24.37
2022-09-06T09:56:55.275Z,24.38
2022-09-06T09:59:43.341Z,24.32
2022-09-06T10:02:21.942Z,24.13
2022-09-06T10:04:51.950Z,24.34
2022-09-06T10:07:24.575Z,24.07
2022-09-06T10:10:22.591Z,23.98
2022-09-06T10:13:20.458Z,23.93
2022-09-06T10:15:48.860Z,23.83
2022-09-06T10:18:40.140Z,23.92
2022-09-06T10:21:16.529Z,23.65
2022-09-06T10:26:52.426Z,23.97
2022-09-06T10:29:40.515Z,24.41
2022-09-06T10:32:22.729Z,24.65
2022-09-06T10:34:52.684Z,24.45
2022-09-06T10:37:49.114Z,24.37
2022-09-06T10:40:48.463Z,24.51
2022-09-06T10:43:19.315Z,24.85
2022-09-06T10:46:10.408Z,25.02
2022-09-06T10:48:57.094Z,25.09
2022-09-06T10:51:44.996Z,25.22
2022-09-06T10:54:32.227Z,25.10
2022-09-06T11:00:17.256Z,25.92
2022-09-06T11:06:05.070Z,26.08
2022-09-06T11:14:42.120Z,26.55
2022-09-06T11:17:35.352Z,26.62
2022-09-06T11:20:19.528Z,26.69
2022-09-06T11:23:08.408Z,27.14
2022-09-06T11:26:10.396Z,27.35
2022-09-06T11:28:50.897Z,27.47
2022-09-06T11:35:07.419Z,27.37
2022-09-06T11:37:41.181Z,27.53
2022-09-06T11:42:53.700Z,27.62
2022-09-06T11:45:39.094Z,27.84
2022-09-06T11:48:41.813Z,27.96
2022-09-06T11:51:15.225Z,28.10
2022-09-06T11:53:52.448Z,28.01
2022-09-06T11:56:35.488Z,28.21
2022-09-06T11:59:24.101Z,28.30
2022-09-06T12:02:00.444Z,28.20
2022-09-06T12:05:01.799Z,28.02
2022-09-06T12:07:36.603Z,28.26
2022-09-06T12:10:31.706Z,28.18
2022-09-06T12:13:02.674Z,28.12
2022-09-06T12:15:45.664Z,28.26
2022-09-06T12:18:53.227Z,28.05
2022-09-06T12:21:41.662Z,28.38
2022-09-06T12:24:38.928Z,28.52
2022-09-06T12:27:13.160Z,28.47
2022-09-06T12:29:55.479Z,28.16
2022-09-06T12:32:44.036Z,28.26
2022-09-06T12:38:32.435Z,27.97
2022-09-06T12:41:04.125Z,27.85
2022-09-06T12:43:37.469Z,27.87
2022-09-06T12:46:12.863Z,27.97
2022-09-06T12:49:30.859Z,28.19
2022-09-06T12:52:15.313Z,28.69
2022-09-06T12:54:55.643Z,28.54
2022-09-06T12:57:26.358Z,28.16
2022-09-06T12:59:58.618Z,28.01
2022-09-06T13:03:04.463Z,27.76
2022-09-06T13:05:38.044Z,27.41
2022-09-06T13:08:08.139Z,27.82
2022-09-06T13:10:38.442Z,28.26
2022-09-06T13:13:19.839Z,28.89
2022-09-06T13:15:55.728Z,29.30
2022-09-06T13:19:17.187Z,28.98
2022-09-06T13:21:49.108Z,28.76
2022-09-06T13:24:47.272Z,28.64
2022-09-06T13:27:49.324Z,28.91
2022-09-06T13:30:49.928Z,29.03
2022-09-06T13:33:27.071Z,29.19
2022-09-06T13:36:31.932Z,29.55
2022-09-06T13:39:05.531Z,29.80
2022-09-06T13:41:39.705Z,29.57
2022-09-06T13:44:09.555Z,29.30
2022-09-06T13:46:39.584Z,29.16
2022-09-06T13:49:06.643Z,28.93
2022-09-06T13:51:41.539Z,28.71
2022-09-06T13:54:20.661Z,28.70
2022-09-06T13:56:56.272Z,28.89
2022-09-06T13:59:27.412Z,29.44
2022-09-06T14:02:08.182Z,29.37
2022-09-06T14:04:38.920Z,29.57
2022-09-06T14:07:12.637Z,29.82
2022-09-06T14:09:48.321Z,29.79
2022-09-06T14:12:17.244Z,30.15
2022-09-06T14:14:48.044Z,30.16
2022-09-06T14:17:16.155Z,29.77
2022-09-06T14:19:49.435Z,29.73
2022-09-06T14:22:17.366Z,30.01
2022-09-06T14:24:44.435Z,29.99
2022-09-06T14:27:19.539Z,30.11
2022-09-06T14:29:46.546Z,29.59
2022-09-06T14:32:21.857Z,29.39
2022-09-06T14:34:56.013Z,29.10
2022-09-06T14:37:25.862Z,28.58
2022-09-06T14:40:03.890Z,28.35
2022-09-06T14:42:34.364Z,28.23
2022-09-06T14:45:07.650Z,28.03
2022-09-06T14:47:45.828Z,27.90
2022-09-06T14:50:19.259Z,27.64
2022-09-06T14:52:49.329Z,27.52
2022-09-06T14:55:26.039Z,27.24
2022-09-06T14:57:59.166Z,27.09
2022-09-06T15:00:44.278Z,26.84
2022-09-06T15:03:11.342Z,26.82
2022-09-06T15:05:42.621Z,26.65
2022-09-06T15:08:09.736Z,26.44
2022-09-06T15:10:41.432Z,26.37
2022-09-06T15:13:23.917Z,26.31
2022-09-06T15:15:56.379Z,26.24
2022-09-06T15:18:25.925Z,26.19
2022-09-06T15:20:59.303Z,26.21
2022-09-06T15:23:30.375Z,25.22
2022-09-06T15:25:57.591Z,24.48
2022-09-06T15:28:30.481Z,23.97
2022-09-06T15:30:58.763Z,23.62
2022-09-06T15:33:35.102Z,23.51
2022-09-06T15:36:09.263Z,23.31
2022-09-06T15:38:41.561Z,23.20
2022-09-06T15:41:20.441Z,22.89
2022-09-06T15:43:57.012Z,22.84
2022-09-06T15:46:36.561Z,22.69
2022-09-06T15:49:07.381Z,22.50
2022-09-06T15:51:40.650Z,22.24
2022-09-06T15:54:08.218Z,22.18
2022-09-06T15:56:44.409Z,22.06
2022-09-06T15:59:19.888Z,21.96
2022-09-06T16:01:47.378Z,21.98
2022-09-06T16:04:17.579Z,22.06
2022-09-06T16:06:46.477Z,21.96
2022-09-06T16:09:25.534Z,21.88
2022-09-06T16:11:55.530Z,21.64
2022-09-06T16:14:36.409Z,21.43
2022-09-06T16:17:15.884Z,21.21
2022-09-06T16:19:52.024Z,21.06
2022-09-06T16:22:31.780Z,20.68
2022-09-06T16:25:15.456Z,20.69
2022-09-06T16:27:51.931Z,20.46
2022-09-06T16:30:29.134Z,20.40
2022-09-06T16:33:13.867Z,20.41
2022-09-06T16:35:49.387Z,20.26
2022-09-06T16:38:36.691Z,20.23
2022-09-06T16:41:20.268Z,20.17
2022-09-06T16:44:02.233Z,20.09
2022-09-06T16:46:41.987Z,20.13
2022-09-06T16:49:34.979Z,19.94
2022-09-06T16:52:23.301Z,19.88
2022-09-06T16:55:03.988Z,19.87
2022-09-06T16:57:40.079Z,19.83
2022-09-06T17:00:16.551Z,19.90
2022-09-06T17:02:47.845Z,19.87
2022-09-06T17:05:20.548Z,19.77
2022-09-06T17:07:50.310Z,19.70
2022-09-06T17:10:21.493Z,19.58
2022-09-06T17:13:01.057Z,19.57
2022-09-06T17:15:48.507Z,19.55
2022-09-06T17:18:22.819Z,19.50
2022-09-06T17:21:09.645Z,19.48
2022-09-06T17:23:40.265Z,19.46
2022-09-06T17:26:07.743Z,19.39
2022-09-06T17:28:36.775Z,19.33
2022-09-06T17:31:10.053Z,19.29
2022-09-06T17:33:42.607Z,19.19
2022-09-06T17:36:17.298Z,19.38
2022-09-06T17:38:48.826Z,19.44
2022-09-06T17:42:00.050Z,19.36
2022-09-06T17:44:30.130Z,19.32
2022-09-06T17:47:14.250Z,19.25
2022-09-06T17:49:53.303Z,19.27
2022-09-06T17:52:20.447Z,19.24
2022-09-06T17:54:50.328Z,19.08
2022-09-06T17:57:22.675Z,19.00
2022-09-06T17:59:52.807Z,19.03
2022-09-06T18:02:22.951Z,18.91
2022-09-06T18:04:53.707Z,18.81
2022-09-06T18:07:20.912Z,18.77
2022-09-06T18:09:50.995Z,18.71
2022-09-06T18:12:20.759Z,18.69
2022-09-06T18:14:52.010Z,18.70
2022-09-06T18:17:29.500Z,18.66
2022-09-06T18:20:01.470Z,18.67
2022-09-06T18:22:34.709Z,18.59
2022-09-06T18:25:05.367Z,18.71
2022-09-06T18:27:33.933Z,18.83
2022-09-06T18:30:03.202Z,18.85
2022-09-06T18:32:31.083Z,18.75
2022-09-06T18:35:00.879Z,18.77
2022-09-06T18:37:35.911Z,18.72
2022-09-06T18:40:09.581Z,18.71
2022-09-06T18:42:36.615Z,18.63
2022-09-06T18:45:08.331Z,18.54
2022-09-06T18:47:39.650Z,18.40
2022-09-06T18:50:15.671Z,18.41
2022-09-06T18:52:43.022Z,18.40
2022-09-06T18:55:12.960Z,18.41
2022-09-06T18:57:43.540Z,18.34
2022-09-06T19:00:18.739Z,18.28
2022-09-06T19:02:48.212Z,18.29
2022-09-06T19:05:23.565Z,18.35
2022-09-06T19:07:53.432Z,18.45
2022-09-06T19:10:23.605Z,18.51
2022-09-06T19:12:57.251Z,18.49
2022-09-06T19:15:29.666Z,18.51
2022-09-06T19:17:58.897Z,18.50
2022-09-06T19:20:26.090Z,18.48
2022-09-06T19:22:56.154Z,18.34
2022-09-06T19:25:23.376Z,18.32
2022-09-06T19:27:54.300Z,18.41
2022-09-06T19:30:26.586Z,18.29
2022-09-06T19:33:02.326Z,18.37
2022-09-06T19:35:31.240Z,18.28
2022-09-06T19:38:08.327Z,18.27
2022-09-06T19:40:43.663Z,18.27
2022-09-06T19:43:12.083Z,18.17
2022-09-06T19:45:45.094Z,18.16
2022-09-06T19:48:14.809Z,18.21
2022-09-06T19:50:44.614Z,18.22
2022-09-06T19:53:11.765Z,18.16
2022-09-06T19:55:38.850Z,18.14
2022-09-06T19:58:08.961Z,18.11
2022-09-06T20:00:40.503Z,18.11
2022-09-06T20:03:10.615Z,18.05
2022-09-06T20:05:40.723Z,17.98
2022-09-06T20:08:09.919Z,17.90
2022-09-06T20:10:37.034Z,17.92
2022-09-06T20:13:04.267Z,17.75
2022-09-06T20:15:36.162Z,17.75
2022-09-06T20:18:11.178Z,17.78
2022-09-06T20:20:41.180Z,17.65
2022-09-06T20:23:12.941Z,17.54
2022-09-06T20:25:45.916Z,17.51
2022-09-06T20:28:18.563Z,17.39
2022-09-06T20:30:55.801Z,17.28
2022-09-06T20:33:29.184Z,17.14
2022-09-06T20:36:04.133Z,17.11
2022-09-06T20:38:36.768Z,17.06
2022-09-06T20:41:09.464Z,17.07
2022-09-06T20:43:55.173Z,17.00
2022-09-06T20:46:33.626Z,16.93
2022-09-06T20:49:04.647Z,16.90
2022-09-06T20:51:38.441Z,16.85
2022-09-06T20:54:09.568Z,16.76
2022-09-06T20:56:48.009Z,16.78
2022-09-06T20:59:15.057Z,16.76
2022-09-06T21:01:51.085Z,16.70
2022-09-06T21:04:21.789Z,16.58
2022-09-06T21:06:55.020Z,16.58
2022-09-06T21:09:25.058Z,16.54
2022-09-06T21:11:55.407Z,16.47
2022-09-06T21:14:29.868Z,16.40
2022-09-06T21:16:57.003Z,16.36
2022-09-06T21:19:26.730Z,16.28
2022-09-06T21:21:56.880Z,16.28
2022-09-06T21:24:31.001Z,16.27
2022-09-06T21:27:24.681Z,16.26
2022-09-06T21:29:51.699Z,16.20
2022-09-06T21:32:18.857Z,16.17
2022-09-06T21:34:47.401Z,16.15
2022-09-06T21:37:17.942Z,16.11
2022-09-06T21:39:48.144Z,16.09
2022-09-06T21:42:18.635Z,16.04
2022-09-06T21:44:45.674Z,16.02
2022-09-06T21:47:17.270Z,15.96
2022-09-06T21:49:54.552Z,15.93
2022-09-06T21:52:26.880Z,15.86
2022-09-06T21:54:53.871Z,15.84
2022-09-06T21:57:36.737Z,15.79
2022-09-06T22:00:07.939Z,15.79
2022-09-06T22:02:38.723Z,15.75
2022-09-06T22:05:15.293Z,15.70
2022-09-06T22:07:53.638Z,15.66
2022-09-06T22:10:31.616Z,15.64
2022-09-06T22:12:58.749Z,15.64
2022-09-06T22:15:29.574Z,15.63
2022-09-06T22:17:57.373Z,15.57
2022-09-06T22:20:27.274Z,15.49
2022-09-06T22:22:57.182Z,15.52
2022-09-06T22:25:27.557Z,15.50
2022-09-06T22:27:54.612Z,15.49
2022-09-06T22:30:25.499Z,15.44
2022-09-06T22:33:03.495Z,15.39
2022-09-06T22:35:31.294Z,15.34
2022-09-06T22:38:03.839Z,15.30
2022-09-06T22:40:36.413Z,15.24
2022-09-06T22:43:12.037Z,15.29
2022-09-06T22:45:48.681Z,15.22
2022-09-06T22:48:30.267Z,15.18
2022-09-06T22:51:08.667Z,15.13
2022-09-06T22:53:39.095Z,15.16
2022-09-06T22:56:14.496Z,15.16
2022-09-06T22:58:44.527Z,15.10
2022-09-06T23:01:20.382Z,15.07
2022-09-06T23:03:50.925Z,15.08
2022-09-06T23:06:26.036Z,15.10
2022-09-06T23:08:53.118Z,15.11
2022-09-06T23:11:26.390Z,15.09
2022-09-06T23:14:03.539Z,15.03
2022-09-06T23:16:33.777Z,15.07
2022-09-06T23:19:11.052Z,15.04
2022-09-06T23:21:43.553Z,15.03
2022-09-06T23:24:11.481Z,14.99
2022-09-06T23:26:44.638Z,15.08
2022-09-06T23:29:26.142Z,14.97
2022-09-06T23:32:07.223Z,14.93
2022-09-06T23:34:42.695Z,14.92
2022-09-06T23:37:20.452Z,14.90
2022-09-06T23:39:55.796Z,14.89
2022-09-06T23:42:28.487Z,14.88
2022-09-06T23:45:14.156Z,14.82
2022-09-06T23:47:43.513Z,14.77
2022-09-06T23:50:21.551Z,14.73
2022-09-06T23:53:07.566Z,14.65
2022-09-06T23:55:48.987Z,14.69
2022-09-06T23:58:21.798Z,14.71
